Memorial Field
KHOT : now visible

Airfield :











YOU CAN JOIN US ON...

 
LOGIN :

Register | Disclaimer

   EN    FR    IT 

 









Legend :    VFR   Marginal VFR   IFR   Intensive IFR   Very Intensive IFR
Visi :
Ceiling :
>= 8 km
>= 3000ft
5 to 8 km
1000 to 3000 ft
1500m to 5 km
500 to 1000 ft
800 to 1500m
200 to 500 ft
< 800m
< 200 ft
Symbols :   Thunderstorms  Fog  Heavy snow  Heavy precipitations  Wind > 20 kt






- Airport Elevation : 540 ft
- IATA code : HOT


KHOT - Memorial Field

CURRENT METAR :
  • 211653Z AUTO 34007KT 10SM CLR 24/09 A3016 RMK AO2 SLP208 T02390089 $

EXPIRED METARs :
  • 211553Z AUTO 29008KT 10SM CLR 23/09 A3017 RMK AO2 SLP210 T02280094
  • 211453Z AUTO 30008KT 260V320 10SM CLR 21/11 A3017 RMK AO2 SLP211 T02110106 53014 $

TAF KHOT
Valid from the 21 at 12:00 until the 22 at 12:00 UTC


211124Z 2112/2212 VRB04KT P6SM BKN060
FM211400 32007KT P6SM SKC
FM220000 VRB03KT P6SM SKC
KZME FIR / North America



MET'MAP, your aeronautical weather chart ! - Copyright ORBIFLY December 2007 - Disclaimer

ORBIFLY MET'MAP TEAM :

Programming & Development : Alexandra Zaïnal
Concept & original design : Baudouin d'Aumeries
Assistance for programming : Marc-Olivier Méhu
Technical & hardware support : Manuel Goepfert

Contact : metmap@orbifly.com




SOURCES & CREDITS :

   NOAA       Earth
Advisory